Time;durP1;ratioP1;P1;durP2;ratioP2;P2;SDS_P1;SDS_P2;PMS_P1;PMS_P2;Temp;Humidity;BMP_temperature;BMP_pressure;BME280_temperature;BME280_humidity;BME280_pressure;Samples;Min_cycle;Max_cycle;Signal;HPM_P1;HPM_P2
2022/09/17 00:01:22;;;;;;;0.10;0.10;;;18.60;99.90;;;;;;5078729;28;20052;-79
2022/09/17 00:03:51;;;;;;;0.03;0.03;;;18.60;99.90;;;;;;5078779;28;20533;-79
2022/09/17 00:06:17;;;;;;;0.08;0.08;;;18.60;99.90;;;;;;5078577;28;20025;-83
2022/09/17 00:08:43;;;;;;;0.10;0.10;;;15.60;99.90;;;;;;5078335;28;20113;-78
2022/09/17 00:11:12;;;;;;;0.00;0.00;;;19.10;99.90;;;;;;5078619;28;20012;-76
2022/09/17 00:13:39;;;;;;;0.10;0.10;;;18.50;99.90;;;;;;5061128;28;20292;-78
2022/09/17 00:16:05;;;;;;;0.10;0.10;;;18.50;99.90;;;;;;5079570;28;20028;-85
2022/09/17 00:18:31;;;;;;;0.10;0.10;;;;;;;;;;5079556;28;20012;-84
2022/09/17 00:20:57;;;;;;;0.10;0.10;;;18.50;99.90;;;;;;5079612;28;20217;-81
2022/09/17 00:23:23;;;;;;;0.10;0.10;;;18.40;99.90;;;;;;5078832;28;20024;-76
2022/09/17 00:25:49;;;;;;;0.10;0.10;;;18.40;99.90;;;;;;5078743;28;20020;-83
2022/09/17 00:28:15;;;;;;;0.00;0.00;;;18.40;99.90;;;;;;5079191;28;20030;-85
2022/09/17 00:30:42;;;;;;;0.00;0.00;;;18.40;99.90;;;;;;5078209;28;20319;-80
2022/09/17 00:33:11;;;;;;;0.00;0.00;;;18.40;99.90;;;;;;5061743;28;20020;-87
2022/09/17 00:35:37;;;;;;;0.28;0.28;;;18.40;99.90;;;;;;5082300;28;20324;-86
2022/09/17 00:38:03;;;;;;;0.00;0.00;;;16.00;99.90;;;;;;5082516;28;20670;-88
2022/09/17 00:40:29;;;;;;;0.10;0.10;;;16.30;99.90;;;;;;5063857;28;20283;-82
2022/09/17 00:42:55;;;;;;;0.10;0.10;;;18.40;99.90;;;;;;5083052;28;20028;-77
2022/09/17 00:45:23;;;;;;;0.10;0.10;;;18.40;99.90;;;;;;5064259;28;20488;-83
2022/09/17 00:47:58;;;;;;;0.05;0.05;;;18.30;99.90;;;;;;5064383;28;20375;-80
2022/09/17 00:50:38;;;;;;;0.10;0.10;;;18.30;99.90;;;;;;5082198;28;20028;-82
2022/09/17 00:53:05;;;;;;;0.10;0.10;;;18.20;99.90;;;;;;5082593;28;20030;-80
2022/09/17 00:55:46;;;;;;;0.10;0.10;;;18.20;99.90;;;;;;5081788;28;20024;-86
2022/09/17 00:58:15;;;;;;;0.00;0.00;;;18.10;99.90;;;;;;5063569;28;20536;-80
2022/09/17 01:00:41;;;;;;;0.10;0.10;;;18.10;99.90;;;;;;5082365;28;20032;-84
2022/09/17 01:03:07;;;;;;;0.10;0.10;;;18.10;99.90;;;;;;5081598;28;20032;-79
2022/09/17 01:05:50;;;;;;;0.10;0.10;;;18.00;99.90;;;;;;5082151;28;20027;-78
2022/09/17 01:08:30;;;;;;;0.10;0.10;;;18.00;99.90;;;;;;5081521;28;20051;-85
2022/09/17 01:11:29;;;;;;;0.10;0.10;;;18.00;99.90;;;;;;5063625;28;20318;-78
2022/09/17 01:14:16;;;;;;;0.00;0.00;;;17.90;99.90;;;;;;5081155;28;20164;-85
2022/09/17 01:17:00;;;;;;;0.10;0.10;;;17.90;99.90;;;;;;5063865;28;20030;-86
2022/09/17 01:19:57;;;;;;;0.10;0.10;;;17.80;99.90;;;;;;5081714;28;20088;-81
2022/09/17 01:22:26;;;;;;;0.10;0.10;;;16.00;99.90;;;;;;5081851;28;20031;-84
2022/09/17 01:25:03;;;;;;;0.00;0.00;;;19.60;99.90;;;;;;5081713;28;20055;-80
2022/09/17 01:27:35;;;;;;;0.10;0.10;;;17.90;99.90;;;;;;5081645;28;20097;-87
2022/09/17 01:30:22;;;;;;;0.10;0.10;;;17.90;99.90;;;;;;5081213;28;20036;-85
2022/09/17 01:32:55;;;;;;;0.10;0.10;;;17.80;99.90;;;;;;5081969;28;20024;-85
2022/09/17 01:35:33;;;;;;;0.37;0.37;;;17.90;99.90;;;;;;5081732;28;20042;-79
2022/09/17 01:37:59;;;;;;;0.10;0.10;;;17.80;99.90;;;;;;5081265;28;20028;-80
2022/09/17 01:40:37;;;;;;;0.10;0.10;;;17.80;99.90;;;;;;5062871;28;20402;-77
2022/09/17 01:43:20;;;;;;;0.10;0.10;;;17.80;99.90;;;;;;5081759;28;20556;-79
2022/09/17 01:46:03;;;;;;;0.00;0.00;;;18.10;99.90;;;;;;5061904;28;20287;-83
2022/09/17 01:48:34;;;;;;;0.05;0.05;;;17.90;99.90;;;;;;5080827;28;20034;-78
2022/09/17 01:51:10;;;;;;;0.10;0.10;;;17.90;99.90;;;;;;5063078;28;20035;-87
2022/09/17 01:54:08;;;;;;;0.10;0.10;;;17.80;99.90;;;;;;5080816;28;20051;-77
2022/09/17 01:56:51;;;;;;;0.10;0.10;;;17.80;99.90;;;;;;4978280;28;20340;-75
2022/09/17 01:59:26;;;;;;;0.10;0.10;;;17.80;99.90;;;;;;4978371;28;20049;-85
2022/09/17 02:02:21;;;;;;;0.10;0.10;;;19.10;99.90;;;;;;4979639;28;20042;-86
2022/09/17 02:05:13;;;;;;;0.10;0.10;;;18.40;99.90;;;;;;4902219;29;20036;-81
2022/09/17 02:07:48;;;;;;;0.10;0.10;;;17.80;99.90;;;;;;4904783;29;20393;-79
2022/09/17 02:10:19;;;;;;;0.10;0.10;;;17.90;99.90;;;;;;4909131;29;20227;-88
2022/09/17 02:13:02;;;;;;;0.10;0.10;;;17.90;99.90;;;;;;4908791;29;20024;-77
2022/09/17 02:15:33;;;;;;;0.10;0.10;;;17.90;99.90;;;;;;4893106;29;20346;-77
2022/09/17 02:18:25;;;;;;;0.10;0.10;;;17.90;99.90;;;;;;4910963;29;20612;-75
2022/09/17 02:21:16;;;;;;;0.45;0.45;;;17.90;99.90;;;;;;4907151;29;20047;-86
2022/09/17 02:23:51;;;;;;;0.10;0.10;;;17.80;99.90;;;;;;4905122;29;20056;-82
2022/09/17 02:26:20;;;;;;;0.10;0.10;;;17.80;99.90;;;;;;4904175;29;20037;-88
2022/09/17 02:29:01;;;;;;;0.80;0.80;;;17.90;99.90;;;;;;4903061;29;20480;-85
2022/09/17 02:31:28;;;;;;;0.10;0.10;;;17.90;99.90;;;;;;4903103;29;20033;-78
2022/09/17 02:34:00;;;;;;;0.10;0.10;;;17.80;99.90;;;;;;4959490;28;20042;-76
2022/09/17 02:36:27;;;;;;;0.05;0.05;;;17.90;99.90;;;;;;4978362;28;20034;-84
2022/09/17 02:39:00;;;;;;;0.10;0.10;;;17.90;99.90;;;;;;4979039;28;20058;-83
2022/09/17 02:41:41;;;;;;;;;;;17.90;99.90;;;;;;4995521;28;20610;-85
2022/09/17 02:44:45;;;;;;;0.10;0.10;;;19.50;99.90;;;;;;5080909;28;20286;-80
2022/09/17 02:47:24;;;;;;;0.10;0.10;;;15.10;99.90;;;;;;5057850;28;20313;-87
2022/09/17 02:49:52;;;;;;;2.42;1.40;;;17.90;99.90;;;;;;5080517;28;20521;-77
2022/09/17 02:52:48;;;;;;;0.10;0.10;;;17.00;99.90;;;;;;5080767;28;20052;-80
2022/09/17 02:55:30;;;;;;;0.10;0.10;;;17.90;99.90;;;;;;5081111;28;20051;-79
2022/09/17 02:58:05;;;;;;;1.75;1.65;;;17.20;99.90;;;;;;5080510;28;20058;-84
2022/09/17 03:00:31;;;;;;;0.10;0.10;;;15.70;99.90;;;;;;5080411;28;20336;-80
2022/09/17 03:02:57;;;;;;;1.27;0.65;;;17.90;99.90;;;;;;5080216;28;20226;-85
2022/09/17 03:05:25;;;;;;;0.10;0.10;;;17.80;99.90;;;;;;5080603;28;20079;-81
2022/09/17 03:07:51;;;;;;;0.10;0.10;;;17.70;99.90;;;;;;5080007;28;20036;-78
2022/09/17 03:10:17;;;;;;;0.15;0.15;;;17.60;99.90;;;;;;5062475;28;20364;-83
2022/09/17 03:12:43;;;;;;;0.10;0.10;;;17.60;99.90;;;;;;5079763;28;20026;-86
2022/09/17 03:15:09;;;;;;;0.10;0.10;;;17.60;99.90;;;;;;5079684;28;20013;-83
2022/09/17 03:17:35;;;;;;;0.10;0.10;;;17.60;99.90;;;;;;5079806;28;20024;-91
2022/09/17 03:20:01;;;;;;;0.10;0.10;;;15.90;99.90;;;;;;5080107;28;20587;-85
2022/09/17 03:22:27;;;;;;;1.90;1.83;;;17.40;99.90;;;;;;5079814;28;20032;-80
2022/09/17 03:24:53;;;;;;;0.10;0.10;;;17.30;99.90;;;;;;5080423;28;20030;-82
2022/09/17 03:27:19;;;;;;;0.10;0.10;;;17.30;99.90;;;;;;5079883;28;20224;-86
2022/09/17 03:29:44;;;;;;;0.10;0.10;;;14.00;99.90;;;;;;5079079;28;20031;-78
2022/09/17 03:32:10;;;;;;;0.10;0.10;;;17.30;99.90;;;;;;5061717;28;20506;-77
2022/09/17 03:34:36;;;;;;;0.10;0.10;;;19.20;99.90;;;;;;5080035;28;20589;-77
2022/09/17 03:37:02;;;;;;;0.10;0.10;;;17.20;99.90;;;;;;5068800;28;20350;-76
2022/09/17 03:39:28;;;;;;;0.10;0.10;;;17.20;99.90;;;;;;5088663;28;20161;-85
2022/09/17 03:41:54;;;;;;;0.10;0.10;;;17.20;99.90;;;;;;5098943;28;20024;-83
2022/09/17 03:44:22;;;;;;;0.20;0.20;;;17.20;99.90;;;;;;5085159;28;20313;-94
2022/09/17 03:46:48;;;;;;;0.20;0.20;;;17.20;99.90;;;;;;5083150;28;20017;-90
2022/09/17 03:49:14;;;;;;;0.10;0.10;;;17.30;99.90;;;;;;5082169;28;20115;-80
2022/09/17 03:51:40;;;;;;;0.15;0.15;;;17.20;99.90;;;;;;5081848;28;20087;-86
2022/09/17 03:54:06;;;;;;;0.10;0.10;;;17.20;99.90;;;;;;5081466;28;20440;-83
2022/09/17 03:56:32;;;;;;;0.10;0.10;;;17.20;99.90;;;;;;5080711;28;20028;-83
2022/09/17 03:58:59;;;;;;;0.10;0.10;;;17.10;99.90;;;;;;5077805;28;20073;-78
2022/09/17 04:01:25;;;;;;;0.10;0.10;;;17.10;99.90;;;;;;5079549;28;20056;-83
2022/09/17 04:03:52;;;;;;;0.08;0.08;;;17.00;99.90;;;;;;5078785;28;20655;-83
2022/09/17 04:06:17;;;;;;;0.10;0.10;;;17.00;99.90;;;;;;5079177;28;20077;-82
2022/09/17 04:08:43;;;;;;;1.98;1.85;;;17.00;99.90;;;;;;5078673;28;20048;-81
2022/09/17 04:11:09;;;;;;;0.10;0.10;;;16.90;99.90;;;;;;5079006;28;20020;-87
2022/09/17 04:13:35;;;;;;;0.10;0.10;;;16.90;99.90;;;;;;5079206;28;20547;-83
2022/09/17 04:16:02;;;;;;;0.10;0.10;;;16.90;99.90;;;;;;5079057;28;20115;-81
2022/09/17 04:18:28;;;;;;;0.10;0.10;;;16.70;99.90;;;;;;5079068;28;20434;-86
2022/09/17 04:21:00;;;;;;;0.10;0.10;;;16.60;99.90;;;;;;5085930;28;20024;-82
2022/09/17 04:23:26;;;;;;;0.10;0.10;;;16.30;99.90;;;;;;5079222;28;20541;-80
2022/09/17 04:25:51;;;;;;;0.10;0.10;;;16.20;99.90;;;;;;5079414;28;20059;-85
2022/09/17 04:28:18;;;;;;;0.10;0.10;;;16.20;99.90;;;;;;5079493;28;20312;-82
2022/09/17 04:30:44;;;;;;;0.10;0.10;;;16.10;99.90;;;;;;5079902;28;20075;-83
2022/09/17 04:33:10;;;;;;;0.10;0.10;;;15.50;99.90;;;;;;5079542;28;20502;-82
2022/09/17 04:35:36;;;;;;;0.10;0.10;;;16.10;99.90;;;;;;5079770;28;20406;-89
2022/09/17 04:38:02;;;;;;;0.10;0.10;;;16.20;99.90;;;;;;5080249;28;20502;-87
2022/09/17 04:40:28;;;;;;;0.10;0.10;;;16.20;99.90;;;;;;5081573;28;20120;-79
2022/09/17 04:42:55;;;;;;;0.85;0.85;;;16.20;99.90;;;;;;5083380;28;20119;-85
2022/09/17 04:45:22;;;;;;;0.10;0.10;;;16.20;99.90;;;;;;5083219;28;20063;-88
2022/09/17 04:47:49;;;;;;;0.88;0.85;;;16.20;99.90;;;;;;5079903;28;20404;-90
2022/09/17 04:50:17;;;;;;;0.10;0.10;;;16.20;99.90;;;;;;5080227;28;20051;-87
2022/09/17 04:52:43;;;;;;;0.10;0.10;;;16.30;99.90;;;;;;5079807;28;20012;-83
2022/09/17 04:55:09;;;;;;;0.10;0.10;;;16.30;99.90;;;;;;5078986;28;20074;-85
2022/09/17 04:57:35;;;;;;;0.10;0.10;;;16.30;99.90;;;;;;5079097;28;20243;-87
2022/09/17 05:00:02;;;;;;;0.10;0.10;;;16.40;99.90;;;;;;5079455;28;20081;-82
2022/09/17 05:02:27;;;;;;;0.10;0.10;;;16.40;99.90;;;;;;5079582;28;20032;-85
2022/09/17 05:04:55;;;;;;;0.10;0.10;;;16.40;99.90;;;;;;5079409;28;20224;-84
2022/09/17 05:07:21;;;;;;;0.10;0.10;;;16.40;99.90;;;;;;5079392;28;20273;-82
2022/09/17 05:09:47;;;;;;;0.10;0.10;;;16.20;99.90;;;;;;5079647;28;20032;-84
2022/09/17 05:12:15;;;;;;;0.10;0.10;;;16.10;99.90;;;;;;5079148;28;20173;-90
2022/09/17 05:14:41;;;;;;;0.10;0.10;;;16.00;99.90;;;;;;5079595;28;20240;-90
2022/09/17 05:17:06;;;;;;;0.10;0.10;;;15.90;99.90;;;;;;5061868;28;20029;-87
2022/09/17 05:19:32;;;;;;;0.10;0.10;;;15.80;99.90;;;;;;5081411;28;20158;-85
2022/09/17 05:21:58;;;;;;;0.10;0.10;;;15.70;99.90;;;;;;5081312;28;20339;-78
2022/09/17 05:24:23;;;;;;;0.10;0.10;;;15.60;99.90;;;;;;5081484;28;20210;-81
2022/09/17 05:26:49;;;;;;;0.10;0.10;;;15.60;99.90;;;;;;5081647;28;20669;-87
2022/09/17 05:29:15;;;;;;;0.10;0.10;;;15.50;99.90;;;;;;5081444;28;20372;-87
2022/09/17 05:31:41;;;;;;;0.10;0.10;;;15.40;99.90;;;;;;5081813;28;20020;-85
2022/09/17 05:34:07;;;;;;;0.10;0.10;;;15.40;99.90;;;;;;5064174;28;20020;-81
2022/09/17 05:36:33;;;;;;;0.10;0.10;;;15.30;99.90;;;;;;5086637;28;20127;-84
2022/09/17 05:38:59;;;;;;;0.10;0.10;;;15.40;99.90;;;;;;5068066;28;20407;-84
2022/09/17 05:41:25;;;;;;;0.10;0.10;;;15.30;99.90;;;;;;5089763;28;20244;-81
2022/09/17 05:43:50;;;;;;;0.10;0.10;;;15.30;99.90;;;;;;5086559;28;20032;-86
2022/09/17 05:46:16;;;;;;;0.00;0.00;;;15.20;99.90;;;;;;5082431;28;20497;-86
2022/09/17 05:48:42;;;;;;;0.10;0.10;;;15.10;99.90;;;;;;5082423;28;20016;-82
2022/09/17 05:51:08;;;;;;;0.10;0.10;;;15.10;99.90;;;;;;5081747;28;20024;-86
2022/09/17 05:53:34;;;;;;;0.10;0.10;;;15.00;99.90;;;;;;5081790;28;20081;-83
2022/09/17 05:55:59;;;;;;;0.10;0.10;;;15.10;99.90;;;;;;5081001;28;20016;-88
2022/09/17 05:58:26;;;;;;;0.10;0.10;;;15.00;99.90;;;;;;5081316;28;20071;-82
2022/09/17 06:00:52;;;;;;;0.10;0.10;;;14.90;99.90;;;;;;5081394;28;20024;-80
2022/09/17 06:03:19;;;;;;;0.03;0.03;;;14.90;99.90;;;;;;5080928;28;20518;-91
2022/09/17 06:06:00;;;;;;;0.10;0.10;;;14.80;99.90;;;;;;5081373;28;20309;-80
2022/09/17 06:08:27;;;;;;;0.10;0.10;;;14.70;99.90;;;;;;5062878;28;20295;-82
2022/09/17 06:10:53;;;;;;;0.10;0.10;;;14.70;99.90;;;;;;5081481;28;20161;-86
2022/09/17 06:13:20;;;;;;;0.10;0.10;;;14.70;99.90;;;;;;5081219;28;20028;-80
2022/09/17 06:15:52;;;;;;;0.10;0.10;;;14.70;99.90;;;;;;5081967;28;20391;-89
2022/09/17 06:18:19;;;;;;;0.10;0.10;;;14.80;99.90;;;;;;5081495;28;20535;-83
2022/09/17 06:20:55;;;;;;;0.10;0.10;;;14.80;99.90;;;;;;5081499;28;20103;-85
2022/09/17 06:23:22;;;;;;;0.10;0.10;;;14.80;99.90;;;;;;5081330;28;20036;-85
2022/09/17 06:25:54;;;;;;;0.10;0.10;;;14.70;99.90;;;;;;5081518;28;20100;-88
2022/09/17 06:28:20;;;;;;;0.10;0.10;;;14.60;99.90;;;;;;5081573;28;20588;-88
2022/09/17 06:30:46;;;;;;;0.10;0.10;;;14.60;99.90;;;;;;5081028;28;20107;-85
2022/09/17 06:33:12;;;;;;;0.10;0.10;;;14.60;99.90;;;;;;5082003;28;20016;-86
2022/09/17 06:35:37;;;;;;;0.10;0.10;;;14.60;99.90;;;;;;5082627;28;20024;-84
2022/09/17 06:38:04;;;;;;;0.10;0.10;;;14.60;99.90;;;;;;5081488;28;20024;-82
2022/09/17 06:40:30;;;;;;;0.10;0.10;;;14.20;99.90;;;;;;5081832;28;20055;-84
2022/09/17 06:42:59;;;;;;;0.10;0.10;;;14.70;99.90;;;;;;5063444;28;20541;-89
2022/09/17 06:45:27;;;;;;;0.10;0.10;;;14.80;99.90;;;;;;5086333;28;20469;-77
2022/09/17 06:47:53;;;;;;;0.10;0.10;;;14.80;99.90;;;;;;5087749;28;20095;-79
2022/09/17 06:50:19;;;;;;;0.10;0.10;;;14.90;99.90;;;;;;5084097;28;20017;-79
2022/09/17 06:52:52;;;;;;;0.10;0.10;;;15.20;99.90;;;;;;5082788;28;20028;-79
2022/09/17 06:55:18;;;;;;;0.10;0.10;;;15.00;99.90;;;;;;5081290;28;20024;-83
2022/09/17 06:57:45;;;;;;;0.10;0.10;;;14.90;99.90;;;;;;5081965;28;20044;-77
2022/09/17 07:00:12;;;;;;;0.10;0.10;;;14.90;99.90;;;;;;5082069;28;20024;-87
2022/09/17 07:02:37;;;;;;;0.10;0.10;;;14.80;99.90;;;;;;5081759;28;20032;-81
2022/09/17 07:05:04;;;;;;;0.10;0.10;;;14.70;99.90;;;;;;5080903;28;20414;-82
2022/09/17 07:07:30;;;;;;;0.10;0.10;;;14.70;99.90;;;;;;5080179;28;20256;-79
2022/09/17 07:09:55;;;;;;;0.10;0.10;;;14.60;99.90;;;;;;5080323;28;20232;-85
2022/09/17 07:12:21;;;;;;;0.10;0.10;;;14.60;99.90;;;;;;5081043;28;20513;-86
2022/09/17 07:14:47;;;;;;;0.10;0.10;;;14.50;99.90;;;;;;5079971;28;20555;-87
2022/09/17 07:17:14;;;;;;;0.10;0.10;;;14.50;99.90;;;;;;5081166;28;20039;-87
2022/09/17 07:19:41;;;;;;;0.10;0.10;;;14.40;99.90;;;;;;5080915;28;20019;-86
2022/09/17 07:22:07;;;;;;;0.10;0.10;;;14.30;99.90;;;;;;5080309;28;20028;-84
2022/09/17 07:24:33;;;;;;;0.10;0.10;;;14.30;99.90;;;;;;5079919;28;20035;-83
2022/09/17 07:27:00;;;;;;;0.10;0.10;;;16.00;99.90;;;;;;5080038;28;20095;-83
2022/09/17 07:29:26;;;;;;;0.10;0.10;;;14.20;99.90;;;;;;5080124;28;20032;-82
2022/09/17 07:31:53;;;;;;;0.10;0.10;;;14.30;99.90;;;;;;5080668;28;20066;-91
2022/09/17 07:34:18;;;;;;;0.10;0.10;;;14.40;99.90;;;;;;5081493;28;20020;-88
2022/09/17 07:36:45;;;;;;;0.10;0.10;;;14.50;99.90;;;;;;5080819;28;20171;-82
2022/09/17 07:39:12;;;;;;;0.10;0.10;;;14.40;99.90;;;;;;5080977;28;20016;-84
2022/09/17 07:41:38;;;;;;;0.10;0.10;;;14.40;99.90;;;;;;5080686;28;20019;-90
2022/09/17 07:44:08;;;;;;;0.10;0.10;;;14.40;99.90;;;;;;5079841;28;20028;-85
2022/09/17 07:46:34;;;;;;;0.10;0.10;;;14.40;99.90;;;;;;5087038;28;20012;-80
2022/09/17 07:49:00;;;;;;;0.10;0.10;;;14.30;99.90;;;;;;5100139;28;20036;-88
2022/09/17 07:51:29;;;;;;;0.10;0.10;;;14.30;99.90;;;;;;5101776;28;20044;-88
2022/09/17 07:53:57;;;;;;;0.10;0.10;;;14.30;99.90;;;;;;5071388;28;20033;-89
2022/09/17 07:56:24;;;;;;;0.10;0.10;;;14.10;99.90;;;;;;5085667;28;20028;-82
2022/09/17 07:58:50;;;;;;;0.10;0.10;;;14.10;99.90;;;;;;5087655;28;20233;-80
2022/09/17 08:01:17;;;;;;;0.10;0.10;;;12.50;99.90;;;;;;5078637;28;20028;-77
2022/09/17 08:03:47;;;;;;;0.10;0.10;;;14.00;99.90;;;;;;5079647;28;20040;-83
2022/09/17 08:06:16;;;;;;;0.10;0.10;;;13.90;99.90;;;;;;5079362;28;20085;-83
2022/09/17 08:08:42;;;;;;;0.10;0.10;;;14.00;99.90;;;;;;5078446;28;20410;-80
2022/09/17 08:11:16;;;;;;;0.10;0.10;;;14.10;99.90;;;;;;5078251;28;20030;-82
2022/09/17 08:13:42;;;;;;;;;;;14.20;99.90;;;;;;5078624;28;20112;-85
2022/09/17 08:16:11;;;;;;;0.10;0.10;;;14.20;99.90;;;;;;5078314;28;19904;-82
2022/09/17 08:18:38;;;;;;;0.10;0.10;;;14.10;99.90;;;;;;5060756;28;20589;-79
2022/09/17 08:21:11;;;;;;;0.10;0.10;;;14.10;99.90;;;;;;5078952;28;20016;-80
2022/09/17 08:23:39;;;;;;;0.10;0.10;;;14.10;99.90;;;;;;5080729;28;20559;-82
2022/09/17 08:26:07;;;;;;;0.10;0.10;;;14.00;99.90;;;;;;5080209;28;20510;-79
2022/09/17 08:28:39;;;;;;;0.10;0.10;;;14.00;99.90;;;;;;5079262;28;20626;-80
2022/09/17 08:31:07;;;;;;;0.10;0.10;;;14.10;99.90;;;;;;5078995;28;20053;-80
2022/09/17 08:33:35;;;;;;;0.10;0.10;;;14.10;99.90;;;;;;5065596;28;20454;-80
2022/09/17 08:36:01;;;;;;;0.10;0.10;;;14.00;99.90;;;;;;5092113;28;20028;-78
2022/09/17 08:38:29;;;;;;;0.10;0.10;;;14.10;99.90;;;;;;5087588;28;20031;-79
2022/09/17 08:41:13;;;;;;;0.10;0.10;;;14.00;99.90;;;;;;5079248;28;20059;-80
2022/09/17 08:43:52;;;;;;;0.10;0.10;;;14.00;99.90;;;;;;5080918;28;20470;-79
2022/09/17 08:46:17;;;;;;;0.10;0.10;;;14.10;99.90;;;;;;5078492;28;20024;-82
2022/09/17 08:49:00;;;;;;;0.10;0.10;;;14.10;99.90;;;;;;5078021;28;20370;-80
2022/09/17 08:51:26;;;;;;;0.10;0.10;;;14.10;99.90;;;;;;5079313;28;20030;-86
2022/09/17 08:54:00;;;;;;;0.10;0.10;;;14.10;99.90;;;;;;5078388;28;20020;-78
2022/09/17 08:56:27;;;;;;;0.10;0.10;;;14.00;99.90;;;;;;5083080;28;20039;-83
2022/09/17 08:59:10;;;;;;;0.10;0.10;;;14.00;99.90;;;;;;5093363;28;20043;-86
2022/09/17 09:01:51;;;;;;;0.10;0.10;;;14.00;99.90;;;;;;5096516;28;20016;-83
2022/09/17 09:04:55;;;;;;;0.10;0.10;;;14.00;99.90;;;;;;5087720;28;20234;-80
2022/09/17 09:07:30;;;;;;;0.10;0.10;;;13.90;99.90;;;;;;5088055;28;20031;-91
2022/09/17 09:09:55;;;;;;;0.00;0.00;;;14.00;99.90;;;;;;5095805;28;20024;-78
2022/09/17 09:12:27;;;;;;;1.17;1.17;;;14.20;99.90;;;;;;5096540;28;20080;-86
2022/09/17 09:15:08;;;;;;;0.10;0.10;;;14.40;99.90;;;;;;5094034;28;20258;-87
2022/09/17 09:17:42;;;;;;;0.10;0.10;;;14.60;99.90;;;;;;5088400;28;20069;-90
2022/09/17 09:20:28;;;;;;;0.10;0.10;;;14.80;99.90;;;;;;5085651;28;20023;-89
2022/09/17 09:22:56;;;;;;;0.10;0.10;;;15.10;99.90;;;;;;5082707;28;20027;-76
2022/09/17 09:25:25;;;;;;;0.10;0.10;;;15.40;99.90;;;;;;5062501;28;20028;-81
2022/09/17 09:28:06;;;;;;;0.10;0.10;;;15.50;99.90;;;;;;5082554;28;20020;-80
2022/09/17 09:31:25;;;;;;;0.10;0.10;;;15.60;99.90;;;;;;5081559;28;20038;-81
2022/09/17 09:33:52;;;;;;;0.10;0.10;;;16.50;99.90;;;;;;4979383;28;20316;-81
2022/09/17 09:36:20;;;;;;;0.10;0.10;;;15.60;99.90;;;;;;4979671;28;20030;-79
2022/09/17 09:39:01;;;;;;;0.10;0.10;;;15.70;99.90;;;;;;4978892;28;20018;-85
2022/09/17 09:41:47;;;;;;;0.00;0.00;;;15.60;99.90;;;;;;4979864;28;20117;-84
2022/09/17 09:44:15;;;;;;;0.10;0.10;;;15.70;99.90;;;;;;4978776;28;20201;-77
2022/09/17 09:46:59;;;;;;;0.10;0.10;;;15.90;99.90;;;;;;4979468;28;20105;-86
2022/09/17 09:49:55;;;;;;;0.10;0.10;;;15.80;99.90;;;;;;4979317;28;20030;-82
2022/09/17 09:52:39;;;;;;;0.10;0.10;;;15.90;99.90;;;;;;4978955;28;20034;-77
2022/09/17 09:55:32;;;;;;;0.10;0.10;;;15.90;99.90;;;;;;4979542;28;20323;-83
2022/09/17 09:58:27;;;;;;;0.10;0.10;;;15.70;99.90;;;;;;4979223;28;20022;-81
2022/09/17 10:00:53;;;;;;;0.10;0.10;;;15.70;99.90;;;;;;4979200;28;20045;-81
2022/09/17 10:03:27;;;;;;;0.10;0.10;;;15.60;99.90;;;;;;4978648;28;20244;-78
2022/09/17 10:05:59;;;;;;;0.10;0.10;;;15.60;99.90;;;;;;4979002;28;20019;-92
2022/09/17 10:08:26;;;;;;;0.10;0.10;;;15.70;99.90;;;;;;5063502;28;20120;-83
2022/09/17 10:10:58;;;;;;;0.10;0.10;;;15.70;99.90;;;;;;5081442;28;20263;-87
2022/09/17 10:13:25;;;;;;;0.10;0.10;;;15.80;99.90;;;;;;5081955;28;20024;-83
2022/09/17 10:15:51;;;;;;;0.10;0.10;;;16.00;99.90;;;;;;5082047;28;20020;-82
2022/09/17 10:18:19;;;;;;;0.10;0.10;;;16.10;99.90;;;;;;5081943;28;20313;-79
2022/09/17 10:20:49;;;;;;;0.10;0.10;;;15.90;99.90;;;;;;5082444;28;20020;-88
2022/09/17 10:23:19;;;;;;;0.30;0.30;;;15.70;99.90;;;;;;5083887;28;20317;-86
2022/09/17 10:25:45;;;;;;;0.10;0.10;;;15.60;99.90;;;;;;5083117;28;20054;-88
2022/09/17 10:28:35;;;;;;;0.10;0.10;;;15.60;99.90;;;;;;5083016;28;20044;-83
2022/09/17 10:31:05;;;;;;;0.30;0.30;;;15.50;99.90;;;;;;5083292;28;20087;-85
2022/09/17 10:33:32;;;;;;;0.10;0.10;;;15.30;99.90;;;;;;5082698;28;20043;-86
2022/09/17 10:36:00;;;;;;;0.10;0.10;;;15.30;99.90;;;;;;5082307;28;20020;-85
2022/09/17 10:38:28;;;;;;;0.10;0.10;;;15.20;99.90;;;;;;5082400;28;20021;-95
2022/09/17 10:41:09;;;;;;;0.10;0.10;;;15.20;99.90;;;;;;5083111;28;20027;-92
2022/09/17 10:43:35;;;;;;;0.10;0.10;;;15.10;99.90;;;;;;5082288;28;20043;-88
2022/09/17 10:46:02;;;;;;;0.10;0.10;;;15.70;99.90;;;;;;5062489;28;20031;-77
2022/09/17 10:48:32;;;;;;;0.10;0.10;;;15.60;99.90;;;;;;5079643;28;20099;-77
2022/09/17 10:51:07;;;;;;;0.10;0.10;;;15.80;99.90;;;;;;5079356;28;20100;-78
2022/09/17 10:54:03;;;;;;;0.10;0.10;;;15.60;99.90;;;;;;5061989;28;20028;-79
2022/09/17 10:56:35;;;;;;;0.10;0.10;;;15.50;99.90;;;;;;5080195;28;20031;-78
2022/09/17 10:59:16;;;;;;;0.10;0.10;;;15.50;99.90;;;;;;5080795;28;20024;-82
2022/09/17 11:02:10;;;;;;;0.10;0.10;;;15.40;99.90;;;;;;5080291;28;20016;-80
2022/09/17 11:05:12;;;;;;;0.10;0.10;;;15.30;99.90;;;;;;5080754;28;20051;-80
2022/09/17 11:08:04;;;;;;;0.15;0.15;;;15.20;99.90;;;;;;5080154;28;20036;-82
2022/09/17 11:10:55;;;;;;;0.10;0.10;;;14.10;99.90;;;;;;5080291;28;20082;-87
2022/09/17 11:13:33;;;;;;;0.10;0.10;;;15.10;99.90;;;;;;5080057;28;20471;-88
2022/09/17 11:16:05;;;;;;;0.10;0.10;;;15.00;99.90;;;;;;5079665;28;20141;-81
2022/09/17 11:18:44;;;;;;;0.10;0.10;;;14.90;99.90;;;;;;5079676;28;20039;-81
2022/09/17 11:21:23;;;;;;;0.10;0.10;;;15.00;99.90;;;;;;5079979;28;20773;-77
2022/09/17 11:24:07;;;;;;;0.10;0.10;;;14.90;99.90;;;;;;5080505;28;20340;-77
2022/09/17 11:27:05;;;;;;;0.10;0.10;;;14.90;99.90;;;;;;5080494;28;20095;-90
2022/09/17 11:29:59;;;;;;;0.10;0.10;;;14.90;99.90;;;;;;5080133;28;20502;-82
2022/09/17 11:32:30;;;;;;;0.10;0.10;;;14.90;99.90;;;;;;5080296;28;20107;-79
2022/09/17 11:35:10;;;;;;;0.10;0.10;;;14.80;99.90;;;;;;5080642;28;20158;-82
2022/09/17 11:37:50;;;;;;;0.10;0.10;;;14.70;99.90;;;;;;5079726;28;20016;-90
2022/09/17 11:40:21;;;;;;;0.10;0.10;;;14.70;99.90;;;;;;5079596;28;20102;-84
2022/09/17 11:43:06;;;;;;;0.10;0.10;;;14.60;99.90;;;;;;5079858;28;20502;-85
2022/09/17 11:45:40;;;;;;;0.10;0.10;;;14.60;99.90;;;;;;5080413;28;20024;-84
2022/09/17 11:48:12;;;;;;;0.10;0.10;;;14.60;99.90;;;;;;5079933;28;20027;-85
2022/09/17 11:50:54;;;;;;;0.10;0.10;;;14.60;99.90;;;;;;5080041;28;20019;-91
2022/09/17 11:53:45;;;;;;;0.10;0.10;;;14.20;99.90;;;;;;5079802;28;20282;-84
2022/09/17 11:56:37;;;;;;;0.10;0.10;;;14.50;99.90;;;;;;5087400;28;20024;-79
2022/09/17 11:59:23;;;;;;;0.50;0.50;;;14.50;99.90;;;;;;5065216;28;20055;-86
2022/09/17 12:01:51;;;;;;;0.10;0.10;;;14.50;99.90;;;;;;5087457;28;20050;-84
2022/09/17 12:04:39;;;;;;;0.10;0.10;;;14.50;99.90;;;;;;5086909;28;20030;-81
2022/09/17 12:07:27;;;;;;;0.10;0.10;;;14.60;99.90;;;;;;5096913;28;20070;-83
2022/09/17 12:10:11;;;;;;;0.10;0.10;;;14.70;99.90;;;;;;5097034;28;20101;-79
2022/09/17 12:12:39;;;;;;;;;;;14.70;99.90;;;;;;5081088;28;20024;-78
2022/09/17 12:15:19;;;;;;;0.10;0.10;;;14.80;99.90;;;;;;5078678;28;20205;-80
2022/09/17 12:18:29;;;;;;;0.10;0.10;;;14.80;99.90;;;;;;5060368;28;20020;-83
2022/09/17 12:20:58;;;;;;;0.10;0.10;;;15.10;99.90;;;;;;4976565;28;20294;-77
2022/09/17 12:23:42;;;;;;;0.10;0.10;;;15.80;99.90;;;;;;4976091;28;20042;-75
2022/09/17 12:26:15;;;;;;;0.10;0.10;;;14.60;99.90;;;;;;4976638;28;20030;-84
2022/09/17 12:28:54;;;;;;;0.10;0.10;;;15.10;99.90;;;;;;4976986;28;20030;-81
2022/09/17 12:31:32;;;;;;;0.10;0.10;;;14.40;99.90;;;;;;4979796;28;20651;-84
2022/09/17 12:34:25;;;;;;;0.10;0.10;;;14.40;99.90;;;;;;4963975;28;20081;-82
2022/09/17 12:36:56;;;;;;;0.10;0.10;;;14.30;99.90;;;;;;4984274;28;20030;-80
2022/09/17 12:39:37;;;;;;;0.10;0.10;;;14.20;99.90;;;;;;4985413;28;20038;-82
2022/09/17 12:42:23;;;;;;;0.10;0.10;;;14.20;99.90;;;;;;4981696;28;20026;-81
2022/09/17 12:45:04;;;;;;;0.10;0.10;;;14.80;99.90;;;;;;4981320;28;20030;-88
2022/09/17 12:47:32;;;;;;;0.10;0.10;;;14.20;99.90;;;;;;4981800;28;20084;-81
2022/09/17 12:50:19;;;;;;;0.10;0.10;;;14.10;99.90;;;;;;4982301;28;20061;-86
2022/09/17 12:53:10;;;;;;;0.10;0.10;;;14.00;99.90;;;;;;4986417;28;20212;-78
2022/09/17 12:55:50;;;;;;;0.25;0.25;;;14.00;99.90;;;;;;5003539;28;20063;-84
2022/09/17 12:58:49;;;;;;;0.10;0.10;;;14.00;99.90;;;;;;5067489;28;20024;-85
2022/09/17 13:01:38;;;;;;;0.10;0.10;;;14.60;99.90;;;;;;5087736;28;20021;-86
2022/09/17 13:04:38;;;;;;;0.65;0.65;;;13.90;99.90;;;;;;5085539;28;20020;-78
2022/09/17 13:07:34;;;;;;;0.10;0.10;;;13.80;99.90;;;;;;5086436;28;20038;-89
2022/09/17 13:10:27;;;;;;;0.10;0.10;;;13.70;99.90;;;;;;5104522;28;20316;-89
2022/09/17 13:13:03;;;;;;;0.10;0.10;;;13.60;99.90;;;;;;5086854;28;20316;-84
2022/09/17 13:16:10;;;;;;;0.10;0.10;;;14.30;99.90;;;;;;5072358;28;20313;-83
2022/09/17 13:19:08;;;;;;;0.20;0.20;;;13.50;99.90;;;;;;4985629;28;20106;-81